createdAt,value
2022-08-28T00:01:24.804Z,18.86
2022-08-28T00:03:51.361Z,18.85
2022-08-28T00:06:17.886Z,18.81
2022-08-28T00:08:44.509Z,18.77
2022-08-28T00:11:11.097Z,18.76
2022-08-28T00:13:37.679Z,18.74
2022-08-28T00:16:04.731Z,18.75
2022-08-28T00:18:32.750Z,18.76
2022-08-28T00:21:00.172Z,18.75
2022-08-28T00:23:28.419Z,18.74
2022-08-28T00:26:09.056Z,18.72
2022-08-28T00:28:35.585Z,18.70
2022-08-28T00:31:02.265Z,18.72
2022-08-28T00:33:32.212Z,18.72
2022-08-28T00:36:01.253Z,18.70
2022-08-28T00:38:29.577Z,18.69
2022-08-28T00:41:00.316Z,18.68
2022-08-28T00:43:34.836Z,18.70
2022-08-28T00:46:01.954Z,18.69
2022-08-28T00:48:28.847Z,18.68
2022-08-28T00:50:56.873Z,18.59
2022-08-28T00:53:32.871Z,18.61
2022-08-28T00:56:04.186Z,18.64
2022-08-28T00:58:37.986Z,18.65
2022-08-28T01:01:04.963Z,18.64
2022-08-28T01:03:31.617Z,18.62
2022-08-28T01:05:58.336Z,18.60
2022-08-28T01:08:24.926Z,18.56
2022-08-28T01:11:01.407Z,18.55
2022-08-28T01:13:29.766Z,18.54
2022-08-28T01:15:56.982Z,18.48
2022-08-28T01:18:25.010Z,18.49
2022-08-28T01:20:58.906Z,18.50
2022-08-28T01:23:36.841Z,18.50
2022-08-28T01:26:10.746Z,18.46
2022-08-28T01:28:38.759Z,18.44
2022-08-28T01:31:05.356Z,18.42
2022-08-28T01:33:31.966Z,18.43
2022-08-28T01:35:58.470Z,18.38
2022-08-28T01:38:26.899Z,18.39
2022-08-28T01:40:57.365Z,18.40
2022-08-28T01:46:06.924Z,18.31
2022-08-28T01:48:36.004Z,18.33
2022-08-28T01:51:03.120Z,18.36
2022-08-28T01:53:32.513Z,18.34
2022-08-28T01:56:01.784Z,18.33
2022-08-28T01:58:30.105Z,18.31
2022-08-28T02:00:57.288Z,18.30
2022-08-28T02:03:24.345Z,18.30
2022-08-28T02:05:51.087Z,18.30
2022-08-28T02:08:17.668Z,18.27
2022-08-28T02:10:44.425Z,18.26
2022-08-28T02:13:12.931Z,18.23
2022-08-28T02:15:41.652Z,18.26
2022-08-28T02:18:08.528Z,18.25
2022-08-28T02:20:35.945Z,18.21
2022-08-28T02:23:02.549Z,18.18
2022-08-28T02:25:29.387Z,18.14
2022-08-28T02:27:56.566Z,18.10
2022-08-28T02:30:24.613Z,18.08
2022-08-28T02:32:51.751Z,18.14
2022-08-28T02:35:20.913Z,18.14
2022-08-28T02:37:47.753Z,18.15
2022-08-28T02:40:16.518Z,18.16
2022-08-28T02:42:43.624Z,18.14
2022-08-28T02:45:12.559Z,18.12
2022-08-28T02:47:42.710Z,18.08
2022-08-28T02:50:11.457Z,18.04
2022-08-28T02:52:38.594Z,18.08
2022-08-28T02:55:06.542Z,18.07
2022-08-28T02:57:33.485Z,18.05
2022-08-28T03:00:00.001Z,18.04
2022-08-28T03:02:26.665Z,18.01
2022-08-28T03:04:54.590Z,17.99
2022-08-28T03:07:21.126Z,17.87
2022-08-28T03:09:47.669Z,18.05
2022-08-28T03:12:14.214Z,17.90
2022-08-28T03:14:40.732Z,17.98
2022-08-28T03:17:07.343Z,17.93
2022-08-28T03:19:34.522Z,17.90
2022-08-28T03:22:02.464Z,17.91
2022-08-28T03:24:29.008Z,17.90
2022-08-28T03:26:55.546Z,17.79
2022-08-28T03:29:22.149Z,17.89
2022-08-28T03:31:48.819Z,17.88
2022-08-28T03:34:15.368Z,17.88
2022-08-28T03:36:41.919Z,17.90
2022-08-28T03:39:10.214Z,17.88
2022-08-28T03:41:36.765Z,17.87
2022-08-28T03:44:03.770Z,17.86
2022-08-28T03:46:31.998Z,17.87
2022-08-28T03:48:59.357Z,17.88
2022-08-28T03:51:34.058Z,17.88
2022-08-28T03:54:01.975Z,17.85
2022-08-28T03:56:30.516Z,17.84
2022-08-28T03:58:59.492Z,17.84
2022-08-28T04:01:26.295Z,17.70
2022-08-28T04:03:53.008Z,17.86
2022-08-28T04:06:19.978Z,17.85
2022-08-28T04:08:47.374Z,17.84
2022-08-28T04:11:13.942Z,17.83
2022-08-28T04:13:41.966Z,17.81
2022-08-28T04:16:11.743Z,17.79
2022-08-28T04:18:40.777Z,17.79
2022-08-28T04:21:09.130Z,17.79
2022-08-28T04:23:37.481Z,17.77
2022-08-28T04:26:04.514Z,17.77
2022-08-28T04:28:31.401Z,17.76
2022-08-28T04:30:59.748Z,17.71
2022-08-28T04:33:28.457Z,17.69
2022-08-28T04:35:55.912Z,17.66
2022-08-28T04:38:22.776Z,17.62
2022-08-28T04:40:49.569Z,17.67
2022-08-28T04:43:16.210Z,17.63
2022-08-28T04:45:45.262Z,17.52
2022-08-28T04:48:14.430Z,17.62
2022-08-28T04:50:41.656Z,17.61
2022-08-28T04:53:08.223Z,17.59
2022-08-28T04:55:53.623Z,17.58
2022-08-28T04:58:23.741Z,17.59
2022-08-28T05:00:52.319Z,17.57
2022-08-28T05:03:21.028Z,17.59
2022-08-28T05:05:50.797Z,17.61
2022-08-28T05:08:19.133Z,17.65
2022-08-28T05:10:46.374Z,17.65
2022-08-28T05:13:14.517Z,17.67
2022-08-28T05:15:41.857Z,17.68
2022-08-28T05:18:08.684Z,17.69
2022-08-28T05:20:37.339Z,17.71
2022-08-28T05:23:04.877Z,17.71
2022-08-28T05:25:35.031Z,17.78
2022-08-28T05:28:01.820Z,17.81
2022-08-28T05:30:28.353Z,17.82
2022-08-28T05:32:54.940Z,17.84
2022-08-28T05:35:22.142Z,17.88
2022-08-28T05:37:50.434Z,17.90
2022-08-28T05:40:17.135Z,17.97
2022-08-28T05:42:43.785Z,17.91
2022-08-28T05:45:10.634Z,17.94
2022-08-28T05:47:37.238Z,17.97
2022-08-28T05:50:04.339Z,17.97
2022-08-28T05:52:30.938Z,18.03
2022-08-28T05:54:58.806Z,17.97
2022-08-28T05:57:25.425Z,18.11
2022-08-28T05:59:52.112Z,18.15
2022-08-28T06:02:18.726Z,18.20
2022-08-28T06:04:45.439Z,18.14
2022-08-28T06:07:11.993Z,18.17
2022-08-28T06:09:38.675Z,18.22
2022-08-28T06:12:07.106Z,18.30
2022-08-28T06:14:34.497Z,18.37
2022-08-28T06:17:02.005Z,18.36
2022-08-28T06:19:30.591Z,18.51
2022-08-28T06:22:00.013Z,18.55
2022-08-28T06:24:28.348Z,18.60
2022-08-28T06:26:58.108Z,18.65
2022-08-28T06:29:27.758Z,18.66
2022-08-28T06:31:56.859Z,18.72
2022-08-28T06:34:23.523Z,18.75
2022-08-28T06:36:53.828Z,18.72
2022-08-28T06:39:21.896Z,18.78
2022-08-28T06:41:48.568Z,18.80
2022-08-28T06:44:18.621Z,18.83
2022-08-28T06:46:48.875Z,18.88
2022-08-28T06:49:15.437Z,18.93
2022-08-28T06:51:42.126Z,18.95
2022-08-28T06:54:09.103Z,18.90
2022-08-28T06:56:35.747Z,18.97
2022-08-28T06:59:02.527Z,18.97
2022-08-28T07:01:31.508Z,18.94
2022-08-28T07:04:01.084Z,18.89
2022-08-28T07:06:30.536Z,18.94
2022-08-28T07:08:57.092Z,18.99
2022-08-28T07:11:25.965Z,18.99
2022-08-28T07:13:54.083Z,19.12
2022-08-28T07:16:22.696Z,19.21
2022-08-28T07:18:49.594Z,19.26
2022-08-28T07:21:17.808Z,19.27
2022-08-28T07:23:44.952Z,19.27
2022-08-28T07:26:15.344Z,19.36
2022-08-28T07:28:42.109Z,19.39
2022-08-28T07:31:10.977Z,19.57
2022-08-28T07:33:38.035Z,19.67
2022-08-28T07:36:06.326Z,19.70
2022-08-28T07:38:34.783Z,19.81
2022-08-28T07:41:01.395Z,19.79
2022-08-28T07:43:27.991Z,19.87
2022-08-28T07:45:58.371Z,19.75
2022-08-28T07:48:25.039Z,19.69
2022-08-28T07:50:51.985Z,19.77
2022-08-28T07:53:18.551Z,19.91
2022-08-28T07:55:49.418Z,19.96
2022-08-28T07:58:16.198Z,20.13
2022-08-28T08:00:42.746Z,20.16
2022-08-28T08:03:09.433Z,20.30
2022-08-28T08:05:36.041Z,20.30
2022-08-28T08:08:03.504Z,20.37
2022-08-28T08:10:33.931Z,20.45
2022-08-28T08:13:02.860Z,20.48
2022-08-28T08:15:31.365Z,20.57
2022-08-28T08:17:58.108Z,20.61
2022-08-28T08:20:24.675Z,20.71
2022-08-28T08:22:51.241Z,20.70
2022-08-28T08:25:17.869Z,20.81
2022-08-28T08:27:44.506Z,20.83
2022-08-28T08:30:13.014Z,20.93
2022-08-28T08:32:39.610Z,21.06
2022-08-28T08:35:06.601Z,21.03
2022-08-28T08:37:33.216Z,20.98
2022-08-28T08:39:59.805Z,20.97
2022-08-28T08:42:29.855Z,21.11
2022-08-28T08:44:58.547Z,20.97
2022-08-28T08:47:36.619Z,20.98
2022-08-28T08:50:07.808Z,21.08
2022-08-28T08:52:49.985Z,21.19
2022-08-28T08:55:22.329Z,21.27
2022-08-28T08:57:56.932Z,21.35
2022-08-28T09:00:24.532Z,21.31
2022-08-28T09:03:00.248Z,21.43
2022-08-28T09:05:40.258Z,21.53
2022-08-28T09:08:12.490Z,21.56
2022-08-28T09:10:47.574Z,21.60
2022-08-28T09:13:25.874Z,21.57
2022-08-28T09:15:52.696Z,21.73
2022-08-28T09:18:23.810Z,21.73
2022-08-28T09:20:52.576Z,21.75
2022-08-28T09:23:20.966Z,21.76
2022-08-28T09:25:55.547Z,21.93
2022-08-28T09:28:25.006Z,21.94
2022-08-28T09:30:58.929Z,22.01
2022-08-28T09:33:36.841Z,22.17
2022-08-28T09:36:28.555Z,22.29
2022-08-28T09:39:11.340Z,22.21
2022-08-28T09:41:52.012Z,21.97
2022-08-28T09:44:18.591Z,22.12
2022-08-28T09:46:48.462Z,22.45
2022-08-28T09:49:23.684Z,22.51
2022-08-28T09:51:50.336Z,22.66
2022-08-28T09:54:21.806Z,22.63
2022-08-28T09:56:49.745Z,22.71
2022-08-28T09:59:18.983Z,22.80
2022-08-28T10:01:58.750Z,22.85
2022-08-28T10:04:54.383Z,22.88
2022-08-28T10:07:29.768Z,22.73
2022-08-28T10:10:09.631Z,22.60
2022-08-28T10:12:42.974Z,22.66
2022-08-28T10:15:17.889Z,22.82
2022-08-28T10:18:04.192Z,22.75
2022-08-28T10:20:44.805Z,22.72
2022-08-28T10:23:19.243Z,22.62
2022-08-28T10:25:55.501Z,22.89
2022-08-28T10:28:34.263Z,22.96
2022-08-28T10:31:13.007Z,23.14
2022-08-28T10:33:55.821Z,23.16
2022-08-28T10:36:34.780Z,23.24
2022-08-28T10:39:14.518Z,23.28
2022-08-28T10:41:45.592Z,23.33
2022-08-28T10:44:17.806Z,23.48
2022-08-28T10:46:49.446Z,23.59
2022-08-28T10:49:23.283Z,23.63
2022-08-28T10:51:54.872Z,23.50
2022-08-28T10:54:27.570Z,23.64
2022-08-28T10:56:59.750Z,23.71
2022-08-28T10:59:32.223Z,23.67
2022-08-28T11:01:59.838Z,23.70
2022-08-28T11:04:29.371Z,23.85
2022-08-28T11:07:01.004Z,23.84
2022-08-28T11:09:35.322Z,24.00
2022-08-28T11:12:05.288Z,24.06
2022-08-28T11:14:34.966Z,24.22
2022-08-28T11:17:04.577Z,24.00
2022-08-28T11:19:56.537Z,24.29
2022-08-28T11:22:28.426Z,24.30
2022-08-28T11:25:09.702Z,24.41
2022-08-28T11:27:37.848Z,24.52
2022-08-28T11:30:30.977Z,24.70
2022-08-28T11:33:04.299Z,24.61
2022-08-28T11:35:45.072Z,24.48
2022-08-28T11:38:51.564Z,24.64
2022-08-28T11:41:20.774Z,24.66
2022-08-28T11:43:49.087Z,24.72
2022-08-28T11:46:34.879Z,24.64
2022-08-28T11:49:03.422Z,24.91
2022-08-28T11:51:56.141Z,24.92
2022-08-28T11:54:47.056Z,24.93
2022-08-28T11:57:17.922Z,25.14
2022-08-28T12:00:06.796Z,25.25
2022-08-28T12:02:49.845Z,25.38
2022-08-28T12:05:38.691Z,25.53
2022-08-28T12:08:05.552Z,25.46
2022-08-28T12:10:57.586Z,25.26
2022-08-28T12:13:52.649Z,25.40
2022-08-28T12:16:19.444Z,25.37
2022-08-28T12:19:04.047Z,25.50
2022-08-28T12:21:37.333Z,25.69
2022-08-28T12:24:14.720Z,25.89
2022-08-28T12:26:47.589Z,26.15
2022-08-28T12:29:27.827Z,26.31
2022-08-28T12:32:07.308Z,26.23
2022-08-28T12:34:46.342Z,26.26
2022-08-28T12:37:39.874Z,26.24
2022-08-28T12:40:21.987Z,26.19
2022-08-28T12:42:55.442Z,26.04
2022-08-28T12:45:29.669Z,25.99
2022-08-28T12:47:59.575Z,25.93
2022-08-28T12:50:32.458Z,26.02
2022-08-28T12:53:02.029Z,26.24
2022-08-28T12:55:28.925Z,26.26
2022-08-28T12:57:57.211Z,26.39
2022-08-28T13:00:26.222Z,26.28
2022-08-28T13:02:54.805Z,26.26
2022-08-28T13:05:32.212Z,26.26
2022-08-28T13:08:01.137Z,26.32
2022-08-28T13:10:30.663Z,26.29
2022-08-28T13:13:05.459Z,26.43
2022-08-28T13:15:47.629Z,26.73
2022-08-28T13:18:33.839Z,26.72
2022-08-28T13:21:34.081Z,26.93
2022-08-28T13:24:26.250Z,27.03
2022-08-28T13:27:02.859Z,27.27
2022-08-28T13:29:31.634Z,27.26
2022-08-28T13:32:00.082Z,27.00
2022-08-28T13:34:28.248Z,27.12
2022-08-28T13:36:57.004Z,27.32
2022-08-28T13:39:23.825Z,27.49
2022-08-28T13:41:53.799Z,27.69
2022-08-28T13:44:34.307Z,27.96
2022-08-28T13:47:03.477Z,28.04
2022-08-28T13:49:30.108Z,28.15
2022-08-28T13:51:58.819Z,28.13
2022-08-28T13:54:25.996Z,28.24
2022-08-28T13:56:54.930Z,28.31
2022-08-28T13:59:22.132Z,28.19
2022-08-28T14:01:54.503Z,28.43
2022-08-28T14:04:21.212Z,28.44
2022-08-28T14:06:48.267Z,28.18
2022-08-28T14:09:14.929Z,28.13
2022-08-28T14:11:41.658Z,28.06
2022-08-28T14:14:08.349Z,28.23
2022-08-28T14:16:39.585Z,28.24
2022-08-28T14:19:08.218Z,28.44
2022-08-28T14:21:37.066Z,28.49
2022-08-28T14:24:04.768Z,28.42
2022-08-28T14:26:31.518Z,28.28
2022-08-28T14:28:58.663Z,28.06
2022-08-28T14:31:26.573Z,28.02
2022-08-28T14:33:53.723Z,27.81
2022-08-28T14:36:24.279Z,27.84
2022-08-28T14:38:54.210Z,28.06
2022-08-28T14:41:22.054Z,28.30
2022-08-28T14:43:48.620Z,28.49
2022-08-28T14:46:16.312Z,28.63
2022-08-28T14:48:42.904Z,28.79
2022-08-28T14:51:09.596Z,28.81
2022-08-28T14:53:37.485Z,28.79
2022-08-28T14:56:06.338Z,28.77
2022-08-28T14:58:33.691Z,28.72
2022-08-28T15:01:01.131Z,28.66
2022-08-28T15:03:28.136Z,28.62
2022-08-28T15:06:00.113Z,28.84
2022-08-28T15:08:26.850Z,29.12
2022-08-28T15:10:55.381Z,29.05
2022-08-28T15:13:22.026Z,29.23
2022-08-28T15:15:48.681Z,29.41
2022-08-28T15:18:15.769Z,29.64
2022-08-28T15:20:45.134Z,29.72
2022-08-28T15:23:13.527Z,29.70
2022-08-28T15:25:40.656Z,29.89
2022-08-28T15:28:09.627Z,29.82
2022-08-28T15:30:36.356Z,29.80
2022-08-28T15:33:03.196Z,29.79
2022-08-28T15:35:29.731Z,29.86
2022-08-28T15:37:56.412Z,30.01
2022-08-28T15:40:23.224Z,30.06
2022-08-28T15:42:49.898Z,30.17
2022-08-28T15:45:17.834Z,30.41
2022-08-28T15:47:44.496Z,30.54
2022-08-28T15:50:11.428Z,30.74
2022-08-28T15:52:38.205Z,30.91
2022-08-28T15:55:05.399Z,30.97
2022-08-28T15:57:32.479Z,30.96
2022-08-28T15:59:59.046Z,30.83
2022-08-28T16:02:27.156Z,30.79
2022-08-28T16:04:54.113Z,30.91
2022-08-28T16:07:22.146Z,31.06
2022-08-28T16:09:49.259Z,30.97
2022-08-28T16:12:16.332Z,31.01
2022-08-28T16:14:42.942Z,31.14
2022-08-28T16:17:11.081Z,31.35
2022-08-28T16:19:40.060Z,31.47
2022-08-28T16:22:07.370Z,31.16
2022-08-28T16:24:33.960Z,31.10
2022-08-28T16:27:00.613Z,31.10
2022-08-28T16:29:27.173Z,31.22
2022-08-28T16:31:53.878Z,31.18
2022-08-28T16:34:21.009Z,31.05
2022-08-28T16:36:49.021Z,30.86
2022-08-28T16:39:15.786Z,31.04
2022-08-28T16:41:42.994Z,31.11
2022-08-28T16:44:09.591Z,30.98
2022-08-28T16:46:36.346Z,30.88
2022-08-28T16:49:03.845Z,30.79
2022-08-28T16:51:30.787Z,30.74
2022-08-28T16:53:58.741Z,30.75
2022-08-28T16:56:25.438Z,30.75
2022-08-28T16:58:53.025Z,30.69
2022-08-28T17:01:21.421Z,30.65
2022-08-28T17:03:51.866Z,30.59
2022-08-28T17:06:20.631Z,30.51
2022-08-28T17:08:47.326Z,30.42
2022-08-28T17:11:15.840Z,30.40
2022-08-28T17:13:42.970Z,30.29
2022-08-28T17:16:10.364Z,30.10
2022-08-28T17:18:39.098Z,29.62
2022-08-28T17:21:16.609Z,29.00
2022-08-28T17:23:43.337Z,28.57
2022-08-28T17:26:10.299Z,28.18
2022-08-28T17:28:38.528Z,27.85
2022-08-28T17:31:05.377Z,27.48
2022-08-28T17:33:31.944Z,27.16
2022-08-28T17:35:58.490Z,26.91
2022-08-28T17:38:26.081Z,26.56
2022-08-28T17:40:52.634Z,26.42
2022-08-28T17:43:19.284Z,26.17
2022-08-28T17:45:47.436Z,25.88
2022-08-28T17:48:14.093Z,25.65
2022-08-28T17:50:40.762Z,25.48
2022-08-28T17:53:07.310Z,25.28
2022-08-28T17:55:33.998Z,25.12
2022-08-28T17:58:00.586Z,24.96
2022-08-28T18:00:27.159Z,24.79
2022-08-28T18:02:55.045Z,24.64
2022-08-28T18:05:21.873Z,24.48
2022-08-28T18:07:48.603Z,24.21
2022-08-28T18:10:15.480Z,24.13
2022-08-28T18:12:42.127Z,23.97
2022-08-28T18:15:10.281Z,23.73
2022-08-28T18:17:37.449Z,23.63
2022-08-28T18:20:07.681Z,23.47
2022-08-28T18:22:34.647Z,23.23
2022-08-28T18:25:01.209Z,23.17
2022-08-28T18:27:27.960Z,23.00
2022-08-28T18:29:54.502Z,22.68
2022-08-28T18:32:21.051Z,22.68
2022-08-28T18:34:47.755Z,22.53
2022-08-28T18:37:16.259Z,22.39
2022-08-28T18:39:43.391Z,22.20
2022-08-28T18:42:11.162Z,22.01
2022-08-28T18:44:37.757Z,21.97
2022-08-28T18:47:04.562Z,21.79
2022-08-28T18:49:31.157Z,21.67
2022-08-28T18:51:57.721Z,21.47
2022-08-28T18:54:25.625Z,21.26
2022-08-28T18:56:57.360Z,20.98
2022-08-28T18:59:28.157Z,20.85
2022-08-28T19:01:54.786Z,20.64
2022-08-28T19:04:21.489Z,20.56
2022-08-28T19:06:48.072Z,20.42
2022-08-28T19:09:19.203Z,20.26
2022-08-28T19:11:48.934Z,20.08
2022-08-28T19:14:15.680Z,19.94
2022-08-28T19:16:42.313Z,19.76
2022-08-28T19:19:08.999Z,19.66
2022-08-28T19:21:36.717Z,19.50
2022-08-28T19:24:03.630Z,19.31
2022-08-28T19:26:30.874Z,18.96
2022-08-28T19:28:59.267Z,18.90
2022-08-28T19:31:27.049Z,18.84
2022-08-28T19:33:54.148Z,18.73
2022-08-28T19:36:21.105Z,18.62
2022-08-28T19:38:47.726Z,18.50
2022-08-28T19:41:14.448Z,18.35
2022-08-28T19:43:43.022Z,18.27
2022-08-28T19:46:18.482Z,18.11
2022-08-28T19:48:47.734Z,18.03
2022-08-28T19:51:17.593Z,17.79
2022-08-28T19:53:54.645Z,17.88
2022-08-28T19:56:23.772Z,17.81
2022-08-28T19:58:50.614Z,17.69
2022-08-28T20:01:18.660Z,17.51
2022-08-28T20:03:45.212Z,17.49
2022-08-28T20:06:11.882Z,17.43
2022-08-28T20:08:38.460Z,17.36
2022-08-28T20:11:05.090Z,17.25
2022-08-28T20:13:31.775Z,17.20
2022-08-28T20:16:03.893Z,17.09
2022-08-28T20:18:32.012Z,16.95
2022-08-28T20:20:58.882Z,16.85
2022-08-28T20:23:25.543Z,16.83
2022-08-28T20:25:52.930Z,16.76
2022-08-28T20:28:19.909Z,16.70
2022-08-28T20:30:46.698Z,16.62
2022-08-28T20:33:13.871Z,16.34
2022-08-28T20:35:41.832Z,16.47
2022-08-28T20:38:08.504Z,16.40
2022-08-28T20:40:35.130Z,16.32
2022-08-28T20:43:01.941Z,16.27
2022-08-28T20:45:28.586Z,16.16
2022-08-28T20:47:55.252Z,16.12
2022-08-28T20:50:21.837Z,16.03
2022-08-28T20:52:49.873Z,15.98
2022-08-28T20:55:16.470Z,16.00
2022-08-28T20:57:43.067Z,15.94
2022-08-28T21:00:11.235Z,15.78
2022-08-28T21:02:38.111Z,15.82
2022-08-28T21:05:05.735Z,15.75
2022-08-28T21:07:32.438Z,15.57
2022-08-28T21:10:07.199Z,15.59
2022-08-28T21:12:35.542Z,15.47
2022-08-28T21:15:02.850Z,15.29
2022-08-28T21:17:30.708Z,15.36
2022-08-28T21:19:59.532Z,15.29
2022-08-28T21:22:26.365Z,15.22
2022-08-28T21:24:52.919Z,15.17
2022-08-28T21:27:20.952Z,15.05
2022-08-28T21:29:47.718Z,14.98
2022-08-28T21:32:14.524Z,14.94
2022-08-28T21:34:41.054Z,14.89
2022-08-28T21:37:07.752Z,14.83
2022-08-28T21:39:34.921Z,14.81
2022-08-28T21:42:01.525Z,14.77
2022-08-28T21:44:29.717Z,14.72
2022-08-28T21:46:56.358Z,14.67
2022-08-28T21:49:23.007Z,14.63
2022-08-28T21:51:51.570Z,14.60
2022-08-28T21:54:18.308Z,14.53
2022-08-28T21:56:45.283Z,14.48
2022-08-28T21:59:12.341Z,14.43
2022-08-28T22:01:40.397Z,14.38
2022-08-28T22:04:07.298Z,14.34
2022-08-28T22:06:33.994Z,14.31
2022-08-28T22:09:00.902Z,14.25
2022-08-28T22:11:28.117Z,14.21
2022-08-28T22:13:55.725Z,14.16
2022-08-28T22:16:22.915Z,14.11
2022-08-28T22:18:51.283Z,13.98
2022-08-28T22:21:21.968Z,13.99
2022-08-28T22:23:48.612Z,13.90
2022-08-28T22:26:17.829Z,13.71
2022-08-28T22:28:44.976Z,13.82
2022-08-28T22:31:11.622Z,13.86
2022-08-28T22:33:38.629Z,13.75
2022-08-28T22:36:07.060Z,13.71
2022-08-28T22:38:33.662Z,13.51
2022-08-28T22:41:00.228Z,13.65
2022-08-28T22:43:26.902Z,13.59
2022-08-28T22:45:53.649Z,13.32
2022-08-28T22:48:20.361Z,13.48
2022-08-28T22:50:47.841Z,13.33
2022-08-28T22:53:17.922Z,13.35
2022-08-28T22:55:44.701Z,13.20
2022-08-28T22:58:11.798Z,13.23
2022-08-28T23:00:39.686Z,13.17
2022-08-28T23:03:06.392Z,12.99
2022-08-28T23:05:33.519Z,13.04
2022-08-28T23:08:00.210Z,13.00
2022-08-28T23:10:48.393Z,12.98
2022-08-28T23:13:15.242Z,12.93
2022-08-28T23:15:42.065Z,12.89
2022-08-28T23:18:08.820Z,12.85
2022-08-28T23:20:35.744Z,12.68
2022-08-28T23:23:02.413Z,12.66
2022-08-28T23:25:30.329Z,12.49
2022-08-28T23:27:56.921Z,12.66
2022-08-28T23:30:24.348Z,12.55
2022-08-28T23:32:51.048Z,12.48
2022-08-28T23:35:18.909Z,12.47
2022-08-28T23:37:48.896Z,12.35
2022-08-28T23:40:21.589Z,12.38
2022-08-28T23:42:49.918Z,12.33
2022-08-28T23:45:17.216Z,12.23
2022-08-28T23:47:44.510Z,12.22
2022-08-28T23:50:13.684Z,12.20
2022-08-28T23:52:40.711Z,12.14
2022-08-28T23:55:10.629Z,12.07
2022-08-28T23:57:37.299Z,12.03
